sensor_id;sensor_type;location;lat;lon;timestamp;temperature;humidity
10702;DHT22;5402;50.004;8.246;2024-03-02T00:00:37;4.30;99.90
10702;DHT22;5402;50.004;8.246;2024-03-02T00:03:07;4.40;99.90
10702;DHT22;5402;50.004;8.246;2024-03-02T00:05:35;4.50;99.90
10702;DHT22;5402;50.004;8.246;2024-03-02T00:08:05;4.50;99.90
10702;DHT22;5402;50.004;8.246;2024-03-02T00:10:36;4.60;99.90
10702;DHT22;5402;50.004;8.246;2024-03-02T00:13:05;4.60;99.90
10702;DHT22;5402;50.004;8.246;2024-03-02T00:15:40;4.50;99.90
10702;DHT22;5402;50.004;8.246;2024-03-02T00:18:10;4.50;99.90
10702;DHT22;5402;50.004;8.246;2024-03-02T00:20:38;4.40;99.90
10702;DHT22;5402;50.004;8.246;2024-03-02T00:23:05;4.10;99.90
10702;DHT22;5402;50.004;8.246;2024-03-02T00:25:37;4.10;99.90
10702;DHT22;5402;50.004;8.246;2024-03-02T00:28:05;4.00;99.90
10702;DHT22;5402;50.004;8.246;2024-03-02T00:30:56;3.70;99.90
10702;DHT22;5402;50.004;8.246;2024-03-02T00:33:26;3.70;99.90
10702;DHT22;5402;50.004;8.246;2024-03-02T00:35:55;3.70;99.90
10702;DHT22;5402;50.004;8.246;2024-03-02T00:38:22;3.70;99.90
10702;DHT22;5402;50.004;8.246;2024-03-02T00:40:49;3.60;99.90
10702;DHT22;5402;50.004;8.246;2024-03-02T00:43:42;3.50;99.90
10702;DHT22;5402;50.004;8.246;2024-03-02T00:46:11;3.60;99.90
10702;DHT22;5402;50.004;8.246;2024-03-02T00:48:48;3.70;99.90
10702;DHT22;5402;50.004;8.246;2024-03-02T00:51:17;3.70;99.90
10702;DHT22;5402;50.004;8.246;2024-03-02T00:53:44;3.70;99.90
10702;DHT22;5402;50.004;8.246;2024-03-02T00:56:11;3.70;99.90
10702;DHT22;5402;50.004;8.246;2024-03-02T00:58:38;3.80;99.90
10702;DHT22;5402;50.004;8.246;2024-03-02T01:01:05;3.90;99.90
10702;DHT22;5402;50.004;8.246;2024-03-02T01:03:32;3.80;99.90
10702;DHT22;5402;50.004;8.246;2024-03-02T01:06:00;3.80;99.90
10702;DHT22;5402;50.004;8.246;2024-03-02T01:08:27;3.80;99.90
10702;DHT22;5402;50.004;8.246;2024-03-02T01:10:54;3.80;99.90
10702;DHT22;5402;50.004;8.246;2024-03-02T01:13:21;3.80;99.90
10702;DHT22;5402;50.004;8.246;2024-03-02T01:15:48;3.90;99.90
10702;DHT22;5402;50.004;8.246;2024-03-02T01:18:15;4.00;99.90
10702;DHT22;5402;50.004;8.246;2024-03-02T01:20:42;3.80;99.90
10702;DHT22;5402;50.004;8.246;2024-03-02T01:23:10;3.80;99.90
10702;DHT22;5402;50.004;8.246;2024-03-02T01:25:36;3.80;99.90
10702;DHT22;5402;50.004;8.246;2024-03-02T01:28:04;3.80;99.90
10702;DHT22;5402;50.004;8.246;2024-03-02T01:30:30;3.50;99.90
10702;DHT22;5402;50.004;8.246;2024-03-02T01:32:57;3.40;99.90
10702;DHT22;5402;50.004;8.246;2024-03-02T01:35:25;3.40;99.90
10702;DHT22;5402;50.004;8.246;2024-03-02T01:37:53;3.40;99.90
10702;DHT22;5402;50.004;8.246;2024-03-02T01:40:21;3.40;99.90
10702;DHT22;5402;50.004;8.246;2024-03-02T01:42:52;3.30;99.90
10702;DHT22;5402;50.004;8.246;2024-03-02T01:45:20;3.30;99.90
10702;DHT22;5402;50.004;8.246;2024-03-02T01:47:47;3.30;99.90
10702;DHT22;5402;50.004;8.246;2024-03-02T01:50:14;3.30;99.90
10702;DHT22;5402;50.004;8.246;2024-03-02T01:52:41;3.30;99.90
10702;DHT22;5402;50.004;8.246;2024-03-02T01:55:10;3.10;99.90
10702;DHT22;5402;50.004;8.246;2024-03-02T01:57:38;3.10;99.90
10702;DHT22;5402;50.004;8.246;2024-03-02T02:00:06;3.10;99.90
10702;DHT22;5402;50.004;8.246;2024-03-02T02:02:35;3.20;99.90
10702;DHT22;5402;50.004;8.246;2024-03-02T02:05:02;3.00;99.90
10702;DHT22;5402;50.004;8.246;2024-03-02T02:07:29;3.00;99.90
10702;DHT22;5402;50.004;8.246;2024-03-02T02:09:56;2.90;99.90
10702;DHT22;5402;50.004;8.246;2024-03-02T02:12:24;2.70;99.90
10702;DHT22;5402;50.004;8.246;2024-03-02T02:14:52;2.70;99.90
10702;DHT22;5402;50.004;8.246;2024-03-02T02:17:19;2.80;99.90
10702;DHT22;5402;50.004;8.246;2024-03-02T02:19:46;2.80;99.90
10702;DHT22;5402;50.004;8.246;2024-03-02T02:22:14;2.80;99.90
10702;DHT22;5402;50.004;8.246;2024-03-02T02:24:41;2.90;99.90
10702;DHT22;5402;50.004;8.246;2024-03-02T02:27:08;3.00;99.90
10702;DHT22;5402;50.004;8.246;2024-03-02T02:29:35;3.10;99.90
10702;DHT22;5402;50.004;8.246;2024-03-02T02:32:02;3.10;99.90
10702;DHT22;5402;50.004;8.246;2024-03-02T02:34:29;3.80;99.90
10702;DHT22;5402;50.004;8.246;2024-03-02T02:36:56;3.30;99.90
10702;DHT22;5402;50.004;8.246;2024-03-02T02:39:24;3.30;99.90
10702;DHT22;5402;50.004;8.246;2024-03-02T02:41:51;3.20;99.90
10702;DHT22;5402;50.004;8.246;2024-03-02T02:44:18;3.10;99.90
10702;DHT22;5402;50.004;8.246;2024-03-02T02:46:45;3.10;99.90
10702;DHT22;5402;50.004;8.246;2024-03-02T02:49:13;3.20;99.90
10702;DHT22;5402;50.004;8.246;2024-03-02T02:51:39;3.10;99.90
10702;DHT22;5402;50.004;8.246;2024-03-02T02:54:06;3.20;99.90
10702;DHT22;5402;50.004;8.246;2024-03-02T02:56:34;3.10;99.90
10702;DHT22;5402;50.004;8.246;2024-03-02T02:59:01;3.20;99.90
10702;DHT22;5402;50.004;8.246;2024-03-02T03:01:28;3.20;99.90
10702;DHT22;5402;50.004;8.246;2024-03-02T03:03:54;3.30;99.90
10702;DHT22;5402;50.004;8.246;2024-03-02T03:06:21;3.30;99.90
10702;DHT22;5402;50.004;8.246;2024-03-02T03:08:48;3.40;99.90
10702;DHT22;5402;50.004;8.246;2024-03-02T03:11:14;3.30;99.90
10702;DHT22;5402;50.004;8.246;2024-03-02T03:13:42;3.30;99.90
10702;DHT22;5402;50.004;8.246;2024-03-02T03:16:09;3.30;99.90
10702;DHT22;5402;50.004;8.246;2024-03-02T03:18:36;3.20;99.90
10702;DHT22;5402;50.004;8.246;2024-03-02T03:21:03;2.90;99.90
10702;DHT22;5402;50.004;8.246;2024-03-02T03:23:30;2.80;99.90
10702;DHT22;5402;50.004;8.246;2024-03-02T03:25:58;2.70;99.90
10702;DHT22;5402;50.004;8.246;2024-03-02T03:28:25;2.60;99.90
10702;DHT22;5402;50.004;8.246;2024-03-02T03:30:53;2.60;99.90
10702;DHT22;5402;50.004;8.246;2024-03-02T03:33:19;2.70;99.90
10702;DHT22;5402;50.004;8.246;2024-03-02T03:35:46;2.70;99.90
10702;DHT22;5402;50.004;8.246;2024-03-02T03:38:14;2.60;99.90
10702;DHT22;5402;50.004;8.246;2024-03-02T03:40:41;2.60;99.90
10702;DHT22;5402;50.004;8.246;2024-03-02T03:43:09;2.60;99.90
10702;DHT22;5402;50.004;8.246;2024-03-02T03:45:36;2.70;99.90
10702;DHT22;5402;50.004;8.246;2024-03-02T03:48:04;2.50;99.90
10702;DHT22;5402;50.004;8.246;2024-03-02T03:50:31;2.50;99.90
10702;DHT22;5402;50.004;8.246;2024-03-02T03:52:58;2.30;99.90
10702;DHT22;5402;50.004;8.246;2024-03-02T03:55:24;2.30;99.90
10702;DHT22;5402;50.004;8.246;2024-03-02T03:57:51;2.40;99.90
10702;DHT22;5402;50.004;8.246;2024-03-02T04:00:18;2.30;99.90
10702;DHT22;5402;50.004;8.246;2024-03-02T04:02:45;2.40;99.90
10702;DHT22;5402;50.004;8.246;2024-03-02T04:05:13;2.50;99.90
10702;DHT22;5402;50.004;8.246;2024-03-02T04:07:40;2.70;99.90
10702;DHT22;5402;50.004;8.246;2024-03-02T04:10:10;2.30;99.90
10702;DHT22;5402;50.004;8.246;2024-03-02T04:12:37;2.30;99.90
10702;DHT22;5402;50.004;8.246;2024-03-02T04:15:05;2.30;99.90
10702;DHT22;5402;50.004;8.246;2024-03-02T04:17:32;2.30;99.90
10702;DHT22;5402;50.004;8.246;2024-03-02T04:20:01;2.40;99.90
10702;DHT22;5402;50.004;8.246;2024-03-02T04:22:33;2.50;99.90
10702;DHT22;5402;50.004;8.246;2024-03-02T04:25:00;2.20;99.90
10702;DHT22;5402;50.004;8.246;2024-03-02T04:27:26;2.30;99.90
10702;DHT22;5402;50.004;8.246;2024-03-02T04:29:53;2.40;99.90
10702;DHT22;5402;50.004;8.246;2024-03-02T04:32:21;2.80;99.90
10702;DHT22;5402;50.004;8.246;2024-03-02T04:34:49;2.30;99.90
10702;DHT22;5402;50.004;8.246;2024-03-02T04:37:16;2.20;99.90
10702;DHT22;5402;50.004;8.246;2024-03-02T04:39:47;2.30;99.90
10702;DHT22;5402;50.004;8.246;2024-03-02T04:42:14;2.10;99.90
10702;DHT22;5402;50.004;8.246;2024-03-02T04:44:41;2.00;99.90
10702;DHT22;5402;50.004;8.246;2024-03-02T04:47:07;2.00;99.90
10702;DHT22;5402;50.004;8.246;2024-03-02T04:49:34;2.00;99.90
10702;DHT22;5402;50.004;8.246;2024-03-02T04:52:01;2.50;99.90
10702;DHT22;5402;50.004;8.246;2024-03-02T04:54:28;2.00;99.90
10702;DHT22;5402;50.004;8.246;2024-03-02T04:56:56;2.00;99.90
10702;DHT22;5402;50.004;8.246;2024-03-02T04:59:23;1.80;99.90
10702;DHT22;5402;50.004;8.246;2024-03-02T05:01:51;1.70;99.90
10702;DHT22;5402;50.004;8.246;2024-03-02T05:04:17;1.80;99.90
10702;DHT22;5402;50.004;8.246;2024-03-02T05:06:44;1.80;99.90
10702;DHT22;5402;50.004;8.246;2024-03-02T05:09:17;1.80;99.90
10702;DHT22;5402;50.004;8.246;2024-03-02T05:11:44;1.80;99.90
10702;DHT22;5402;50.004;8.246;2024-03-02T05:14:26;1.80;99.90
10702;DHT22;5402;50.004;8.246;2024-03-02T05:16:51;2.00;99.90
10702;DHT22;5402;50.004;8.246;2024-03-02T05:19:18;2.60;99.90
10702;DHT22;5402;50.004;8.246;2024-03-02T05:21:45;2.20;99.90
10702;DHT22;5402;50.004;8.246;2024-03-02T05:24:13;2.20;99.90
10702;DHT22;5402;50.004;8.246;2024-03-02T05:26:40;2.20;99.90
10702;DHT22;5402;50.004;8.246;2024-03-02T05:29:06;2.30;99.90
10702;DHT22;5402;50.004;8.246;2024-03-02T05:31:34;2.40;99.90
10702;DHT22;5402;50.004;8.246;2024-03-02T05:34:01;2.50;99.90
10702;DHT22;5402;50.004;8.246;2024-03-02T05:36:28;2.60;99.90
10702;DHT22;5402;50.004;8.246;2024-03-02T05:38:55;2.60;99.90
10702;DHT22;5402;50.004;8.246;2024-03-02T05:41:22;2.60;99.90
10702;DHT22;5402;50.004;8.246;2024-03-02T05:43:49;2.70;99.90
10702;DHT22;5402;50.004;8.246;2024-03-02T05:46:16;2.70;99.90
10702;DHT22;5402;50.004;8.246;2024-03-02T05:48:44;2.90;99.90
10702;DHT22;5402;50.004;8.246;2024-03-02T05:51:10;2.90;99.90
10702;DHT22;5402;50.004;8.246;2024-03-02T05:53:37;3.00;99.90
10702;DHT22;5402;50.004;8.246;2024-03-02T05:56:04;3.10;99.90
10702;DHT22;5402;50.004;8.246;2024-03-02T05:58:31;3.10;99.90
10702;DHT22;5402;50.004;8.246;2024-03-02T06:01:11;3.20;99.90
10702;DHT22;5402;50.004;8.246;2024-03-02T06:03:38;3.30;99.90
10702;DHT22;5402;50.004;8.246;2024-03-02T06:06:06;3.30;99.90
10702;DHT22;5402;50.004;8.246;2024-03-02T06:08:33;3.40;99.90
10702;DHT22;5402;50.004;8.246;2024-03-02T06:11:00;3.50;99.90
10702;DHT22;5402;50.004;8.246;2024-03-02T06:13:27;3.50;99.90
10702;DHT22;5402;50.004;8.246;2024-03-02T06:15:54;3.60;99.90
10702;DHT22;5402;50.004;8.246;2024-03-02T06:18:20;3.60;99.90
10702;DHT22;5402;50.004;8.246;2024-03-02T06:20:47;3.60;99.90
10702;DHT22;5402;50.004;8.246;2024-03-02T06:23:16;3.70;99.90
10702;DHT22;5402;50.004;8.246;2024-03-02T06:25:42;3.70;99.90
10702;DHT22;5402;50.004;8.246;2024-03-02T06:28:09;3.80;99.90
10702;DHT22;5402;50.004;8.246;2024-03-02T06:30:35;3.80;99.90
10702;DHT22;5402;50.004;8.246;2024-03-02T06:33:03;3.80;99.90
10702;DHT22;5402;50.004;8.246;2024-03-02T06:35:31;3.80;99.90
10702;DHT22;5402;50.004;8.246;2024-03-02T06:37:58;3.90;99.90
10702;DHT22;5402;50.004;8.246;2024-03-02T06:40:26;3.90;99.90
10702;DHT22;5402;50.004;8.246;2024-03-02T06:42:52;3.90;99.90
10702;DHT22;5402;50.004;8.246;2024-03-02T06:45:20;3.80;99.90
10702;DHT22;5402;50.004;8.246;2024-03-02T06:47:47;3.90;99.90
10702;DHT22;5402;50.004;8.246;2024-03-02T06:50:14;3.90;99.90
10702;DHT22;5402;50.004;8.246;2024-03-02T06:52:40;4.00;99.90
10702;DHT22;5402;50.004;8.246;2024-03-02T06:55:07;4.00;99.90
10702;DHT22;5402;50.004;8.246;2024-03-02T06:57:35;4.10;99.90
10702;DHT22;5402;50.004;8.246;2024-03-02T07:00:02;4.10;99.90
10702;DHT22;5402;50.004;8.246;2024-03-02T07:02:30;4.10;99.90
10702;DHT22;5402;50.004;8.246;2024-03-02T07:04:57;4.30;99.90
10702;DHT22;5402;50.004;8.246;2024-03-02T07:07:27;4.30;99.90
10702;DHT22;5402;50.004;8.246;2024-03-02T07:09:54;4.30;99.90
10702;DHT22;5402;50.004;8.246;2024-03-02T07:12:21;4.40;99.90
10702;DHT22;5402;50.004;8.246;2024-03-02T07:14:48;4.40;99.90
10702;DHT22;5402;50.004;8.246;2024-03-02T07:17:36;4.50;99.90
10702;DHT22;5402;50.004;8.246;2024-03-02T07:20:04;4.60;99.90
10702;DHT22;5402;50.004;8.246;2024-03-02T07:22:32;4.70;99.90
10702;DHT22;5402;50.004;8.246;2024-03-02T07:24:58;4.80;99.90
10702;DHT22;5402;50.004;8.246;2024-03-02T07:27:25;4.90;99.90
10702;DHT22;5402;50.004;8.246;2024-03-02T07:29:53;4.90;99.90
10702;DHT22;5402;50.004;8.246;2024-03-02T07:32:20;5.00;99.90
10702;DHT22;5402;50.004;8.246;2024-03-02T07:34:46;5.40;99.90
10702;DHT22;5402;50.004;8.246;2024-03-02T07:37:13;5.10;99.90
10702;DHT22;5402;50.004;8.246;2024-03-02T07:39:40;5.20;99.90
10702;DHT22;5402;50.004;8.246;2024-03-02T07:42:07;5.30;99.90
10702;DHT22;5402;50.004;8.246;2024-03-02T07:44:33;5.30;99.90
10702;DHT22;5402;50.004;8.246;2024-03-02T07:47:02;5.40;99.90
10702;DHT22;5402;50.004;8.246;2024-03-02T07:49:28;5.40;99.90
10702;DHT22;5402;50.004;8.246;2024-03-02T07:51:55;5.50;99.90
10702;DHT22;5402;50.004;8.246;2024-03-02T07:54:22;5.50;99.90
10702;DHT22;5402;50.004;8.246;2024-03-02T07:56:48;5.50;99.90
10702;DHT22;5402;50.004;8.246;2024-03-02T07:59:15;5.60;99.90
10702;DHT22;5402;50.004;8.246;2024-03-02T08:01:43;5.60;99.90
10702;DHT22;5402;50.004;8.246;2024-03-02T08:04:11;5.70;99.90
10702;DHT22;5402;50.004;8.246;2024-03-02T08:06:37;5.70;99.90
10702;DHT22;5402;50.004;8.246;2024-03-02T08:09:04;5.80;99.90
10702;DHT22;5402;50.004;8.246;2024-03-02T08:11:35;5.90;99.90
10702;DHT22;5402;50.004;8.246;2024-03-02T08:14:02;5.90;99.90
10702;DHT22;5402;50.004;8.246;2024-03-02T08:16:29;6.00;99.90
10702;DHT22;5402;50.004;8.246;2024-03-02T08:18:56;6.00;99.90
10702;DHT22;5402;50.004;8.246;2024-03-02T08:21:25;6.00;99.90
10702;DHT22;5402;50.004;8.246;2024-03-02T08:23:52;6.10;99.90
10702;DHT22;5402;50.004;8.246;2024-03-02T08:26:18;6.10;99.90
10702;DHT22;5402;50.004;8.246;2024-03-02T08:28:45;6.30;99.90
10702;DHT22;5402;50.004;8.246;2024-03-02T08:31:12;6.30;99.90
10702;DHT22;5402;50.004;8.246;2024-03-02T08:33:39;6.30;99.90
10702;DHT22;5402;50.004;8.246;2024-03-02T08:36:06;6.40;99.90
10702;DHT22;5402;50.004;8.246;2024-03-02T08:38:36;6.40;99.90
10702;DHT22;5402;50.004;8.246;2024-03-02T08:41:03;6.50;99.90
10702;DHT22;5402;50.004;8.246;2024-03-02T08:43:31;6.60;99.90
10702;DHT22;5402;50.004;8.246;2024-03-02T08:45:58;6.70;99.90
10702;DHT22;5402;50.004;8.246;2024-03-02T08:48:24;6.70;99.90
10702;DHT22;5402;50.004;8.246;2024-03-02T08:50:51;6.90;99.90
10702;DHT22;5402;50.004;8.246;2024-03-02T08:53:18;7.00;99.90
10702;DHT22;5402;50.004;8.246;2024-03-02T08:55:46;7.10;99.90
10702;DHT22;5402;50.004;8.246;2024-03-02T08:58:13;7.20;99.90
10702;DHT22;5402;50.004;8.246;2024-03-02T09:00:40;7.30;99.90
10702;DHT22;5402;50.004;8.246;2024-03-02T09:03:07;7.40;99.90
10702;DHT22;5402;50.004;8.246;2024-03-02T09:05:34;7.40;99.90
10702;DHT22;5402;50.004;8.246;2024-03-02T09:08:00;7.50;99.90
10702;DHT22;5402;50.004;8.246;2024-03-02T09:10:29;7.50;99.90
10702;DHT22;5402;50.004;8.246;2024-03-02T09:12:57;7.60;99.90
10702;DHT22;5402;50.004;8.246;2024-03-02T09:15:24;7.60;99.90
10702;DHT22;5402;50.004;8.246;2024-03-02T09:17:51;7.70;99.90
10702;DHT22;5402;50.004;8.246;2024-03-02T09:20:18;7.80;99.90
10702;DHT22;5402;50.004;8.246;2024-03-02T09:22:44;7.90;99.90
10702;DHT22;5402;50.004;8.246;2024-03-02T09:25:13;7.90;99.90
10702;DHT22;5402;50.004;8.246;2024-03-02T09:27:39;8.00;99.90
10702;DHT22;5402;50.004;8.246;2024-03-02T09:30:10;8.10;99.90
10702;DHT22;5402;50.004;8.246;2024-03-02T09:32:37;8.20;99.90
10702;DHT22;5402;50.004;8.246;2024-03-02T09:35:04;8.20;99.90
10702;DHT22;5402;50.004;8.246;2024-03-02T09:37:31;8.20;99.90
10702;DHT22;5402;50.004;8.246;2024-03-02T09:39:58;8.20;99.90
10702;DHT22;5402;50.004;8.246;2024-03-02T09:42:25;8.20;99.90
10702;DHT22;5402;50.004;8.246;2024-03-02T09:44:52;8.20;99.90
10702;DHT22;5402;50.004;8.246;2024-03-02T09:47:20;8.40;99.90
10702;DHT22;5402;50.004;8.246;2024-03-02T09:49:47;8.40;99.90
10702;DHT22;5402;50.004;8.246;2024-03-02T09:52:14;8.50;99.90
10702;DHT22;5402;50.004;8.246;2024-03-02T09:54:41;8.50;99.90
10702;DHT22;5402;50.004;8.246;2024-03-02T09:57:08;8.50;99.90
10702;DHT22;5402;50.004;8.246;2024-03-02T09:59:36;8.30;99.90
10702;DHT22;5402;50.004;8.246;2024-03-02T10:02:03;8.40;99.90
10702;DHT22;5402;50.004;8.246;2024-03-02T10:04:34;8.30;99.90
10702;DHT22;5402;50.004;8.246;2024-03-02T10:07:17;8.40;99.90
10702;DHT22;5402;50.004;8.246;2024-03-02T10:09:46;8.40;99.90
10702;DHT22;5402;50.004;8.246;2024-03-02T10:12:14;8.60;99.90
10702;DHT22;5402;50.004;8.246;2024-03-02T10:14:41;8.60;99.90
10702;DHT22;5402;50.004;8.246;2024-03-02T10:17:09;8.70;99.90
10702;DHT22;5402;50.004;8.246;2024-03-02T10:19:38;8.70;99.90
10702;DHT22;5402;50.004;8.246;2024-03-02T10:22:07;8.70;99.90
10702;DHT22;5402;50.004;8.246;2024-03-02T10:24:37;8.90;99.90
10702;DHT22;5402;50.004;8.246;2024-03-02T10:27:08;8.70;99.90
10702;DHT22;5402;50.004;8.246;2024-03-02T10:29:39;8.70;99.90
10702;DHT22;5402;50.004;8.246;2024-03-02T10:32:09;8.80;99.90
10702;DHT22;5402;50.004;8.246;2024-03-02T10:34:39;8.90;99.90
10702;DHT22;5402;50.004;8.246;2024-03-02T10:37:06;9.20;99.90
10702;DHT22;5402;50.004;8.246;2024-03-02T10:39:34;9.40;99.90
10702;DHT22;5402;50.004;8.246;2024-03-02T10:42:02;9.40;99.90
10702;DHT22;5402;50.004;8.246;2024-03-02T10:44:30;9.50;99.90
10702;DHT22;5402;50.004;8.246;2024-03-02T10:46:59;9.60;99.90
10702;DHT22;5402;50.004;8.246;2024-03-02T10:49:26;9.60;99.90
10702;DHT22;5402;50.004;8.246;2024-03-02T10:51:55;9.60;99.90
10702;DHT22;5402;50.004;8.246;2024-03-02T10:54:21;9.60;99.90
10702;DHT22;5402;50.004;8.246;2024-03-02T10:56:53;9.50;99.90
10702;DHT22;5402;50.004;8.246;2024-03-02T10:59:26;9.60;99.90
10702;DHT22;5402;50.004;8.246;2024-03-02T11:01:56;9.50;99.90
10702;DHT22;5402;50.004;8.246;2024-03-02T11:04:24;9.60;99.90
10702;DHT22;5402;50.004;8.246;2024-03-02T11:06:51;9.70;99.90
10702;DHT22;5402;50.004;8.246;2024-03-02T11:09:21;9.80;99.90
10702;DHT22;5402;50.004;8.246;2024-03-02T11:11:54;9.70;99.90
10702;DHT22;5402;50.004;8.246;2024-03-02T11:14:24;9.60;99.90
10702;DHT22;5402;50.004;8.246;2024-03-02T11:16:51;9.80;99.90
10702;DHT22;5402;50.004;8.246;2024-03-02T11:19:19;9.90;99.90
10702;DHT22;5402;50.004;8.246;2024-03-02T11:21:46;10.00;99.90
10702;DHT22;5402;50.004;8.246;2024-03-02T11:24:31;10.10;99.90
10702;DHT22;5402;50.004;8.246;2024-03-02T11:27:02;10.20;99.90
10702;DHT22;5402;50.004;8.246;2024-03-02T11:29:44;10.30;99.90
10702;DHT22;5402;50.004;8.246;2024-03-02T11:32:21;10.40;99.90
10702;DHT22;5402;50.004;8.246;2024-03-02T11:34:49;10.40;99.90
10702;DHT22;5402;50.004;8.246;2024-03-02T11:37:17;10.50;99.90
10702;DHT22;5402;50.004;8.246;2024-03-02T11:39:46;10.60;99.90
10702;DHT22;5402;50.004;8.246;2024-03-02T11:42:14;10.70;99.90
10702;DHT22;5402;50.004;8.246;2024-03-02T11:44:43;10.80;99.90
10702;DHT22;5402;50.004;8.246;2024-03-02T11:47:12;10.80;99.90
10702;DHT22;5402;50.004;8.246;2024-03-02T11:49:43;10.80;99.90
10702;DHT22;5402;50.004;8.246;2024-03-02T11:52:12;11.00;99.90
10702;DHT22;5402;50.004;8.246;2024-03-02T11:54:41;11.00;99.90
10702;DHT22;5402;50.004;8.246;2024-03-02T11:57:14;11.20;99.90
10702;DHT22;5402;50.004;8.246;2024-03-02T11:59:41;11.20;99.90
10702;DHT22;5402;50.004;8.246;2024-03-02T12:02:15;11.10;99.90
10702;DHT22;5402;50.004;8.246;2024-03-02T12:04:43;11.20;99.90
10702;DHT22;5402;50.004;8.246;2024-03-02T12:07:11;11.20;99.90
10702;DHT22;5402;50.004;8.246;2024-03-02T12:09:39;11.20;99.90
10702;DHT22;5402;50.004;8.246;2024-03-02T12:12:07;11.30;99.90
10702;DHT22;5402;50.004;8.246;2024-03-02T12:14:37;11.40;99.90
10702;DHT22;5402;50.004;8.246;2024-03-02T12:17:05;11.50;99.90
10702;DHT22;5402;50.004;8.246;2024-03-02T12:19:34;11.60;99.90
10702;DHT22;5402;50.004;8.246;2024-03-02T12:22:02;11.60;99.90
10702;DHT22;5402;50.004;8.246;2024-03-02T12:24:31;11.60;99.90
10702;DHT22;5402;50.004;8.246;2024-03-02T12:26:58;11.60;99.90
10702;DHT22;5402;50.004;8.246;2024-03-02T12:29:26;11.60;99.90
10702;DHT22;5402;50.004;8.246;2024-03-02T12:31:54;12.00;99.90
10702;DHT22;5402;50.004;8.246;2024-03-02T12:34:23;11.70;99.90
10702;DHT22;5402;50.004;8.246;2024-03-02T12:36:50;11.70;99.90
10702;DHT22;5402;50.004;8.246;2024-03-02T12:39:18;11.70;99.90
10702;DHT22;5402;50.004;8.246;2024-03-02T12:41:50;11.80;99.90
10702;DHT22;5402;50.004;8.246;2024-03-02T12:44:17;11.90;99.90
10702;DHT22;5402;50.004;8.246;2024-03-02T12:46:44;11.90;99.90
10702;DHT22;5402;50.004;8.246;2024-03-02T12:49:14;12.00;99.90
10702;DHT22;5402;50.004;8.246;2024-03-02T12:51:42;12.00;99.90
10702;DHT22;5402;50.004;8.246;2024-03-02T12:54:10;12.10;99.90
10702;DHT22;5402;50.004;8.246;2024-03-02T12:56:41;12.10;99.90
10702;DHT22;5402;50.004;8.246;2024-03-02T12:59:18;12.20;99.90
10702;DHT22;5402;50.004;8.246;2024-03-02T13:01:56;12.30;99.90
10702;DHT22;5402;50.004;8.246;2024-03-02T13:04:26;12.30;99.90
10702;DHT22;5402;50.004;8.246;2024-03-02T13:06:56;12.20;99.90
10702;DHT22;5402;50.004;8.246;2024-03-02T13:09:23;12.30;99.90
10702;DHT22;5402;50.004;8.246;2024-03-02T13:11:50;12.30;99.90
10702;DHT22;5402;50.004;8.246;2024-03-02T13:14:17;12.20;99.90
10702;DHT22;5402;50.004;8.246;2024-03-02T13:16:45;12.20;99.90
10702;DHT22;5402;50.004;8.246;2024-03-02T13:19:12;12.10;99.90
10702;DHT22;5402;50.004;8.246;2024-03-02T13:21:40;12.10;99.90
10702;DHT22;5402;50.004;8.246;2024-03-02T13:24:09;12.20;99.90
10702;DHT22;5402;50.004;8.246;2024-03-02T13:26:36;12.30;99.90
10702;DHT22;5402;50.004;8.246;2024-03-02T13:29:03;12.30;99.90
10702;DHT22;5402;50.004;8.246;2024-03-02T13:31:29;12.40;99.90
10702;DHT22;5402;50.004;8.246;2024-03-02T13:33:56;12.40;99.90
10702;DHT22;5402;50.004;8.246;2024-03-02T13:36:23;12.50;99.90
10702;DHT22;5402;50.004;8.246;2024-03-02T13:38:52;12.50;99.90
10702;DHT22;5402;50.004;8.246;2024-03-02T13:41:19;12.60;99.90
10702;DHT22;5402;50.004;8.246;2024-03-02T13:43:49;12.60;99.90
10702;DHT22;5402;50.004;8.246;2024-03-02T13:46:17;12.70;99.90
10702;DHT22;5402;50.004;8.246;2024-03-02T13:48:44;12.70;99.90
10702;DHT22;5402;50.004;8.246;2024-03-02T13:51:11;12.70;99.90
10702;DHT22;5402;50.004;8.246;2024-03-02T13:53:37;12.90;99.90
10702;DHT22;5402;50.004;8.246;2024-03-02T13:56:08;12.80;99.90
10702;DHT22;5402;50.004;8.246;2024-03-02T13:58:35;12.80;99.90
10702;DHT22;5402;50.004;8.246;2024-03-02T14:01:04;13.00;99.90
10702;DHT22;5402;50.004;8.246;2024-03-02T14:03:33;13.00;99.90
10702;DHT22;5402;50.004;8.246;2024-03-02T14:06:00;13.70;99.90
10702;DHT22;5402;50.004;8.246;2024-03-02T14:08:28;13.10;99.90
10702;DHT22;5402;50.004;8.246;2024-03-02T14:10:55;13.10;99.90
10702;DHT22;5402;50.004;8.246;2024-03-02T14:13:27;13.10;99.90
10702;DHT22;5402;50.004;8.246;2024-03-02T14:15:54;13.20;99.90
10702;DHT22;5402;50.004;8.246;2024-03-02T14:18:21;13.20;99.90
10702;DHT22;5402;50.004;8.246;2024-03-02T14:20:48;13.30;99.90
10702;DHT22;5402;50.004;8.246;2024-03-02T14:23:18;13.40;99.90
10702;DHT22;5402;50.004;8.246;2024-03-02T14:25:44;13.40;99.90
10702;DHT22;5402;50.004;8.246;2024-03-02T14:28:11;13.40;99.90
10702;DHT22;5402;50.004;8.246;2024-03-02T14:30:39;13.50;99.90
10702;DHT22;5402;50.004;8.246;2024-03-02T14:33:06;13.40;99.90
10702;DHT22;5402;50.004;8.246;2024-03-02T14:35:33;13.40;99.90
10702;DHT22;5402;50.004;8.246;2024-03-02T14:38:01;13.40;99.90
10702;DHT22;5402;50.004;8.246;2024-03-02T14:40:28;13.50;99.90
10702;DHT22;5402;50.004;8.246;2024-03-02T14:42:55;13.50;99.90
10702;DHT22;5402;50.004;8.246;2024-03-02T14:45:22;13.50;99.90
10702;DHT22;5402;50.004;8.246;2024-03-02T14:47:51;13.50;99.90
10702;DHT22;5402;50.004;8.246;2024-03-02T14:50:18;13.50;99.90
10702;DHT22;5402;50.004;8.246;2024-03-02T14:52:45;13.40;99.90
10702;DHT22;5402;50.004;8.246;2024-03-02T14:55:12;13.40;99.90
10702;DHT22;5402;50.004;8.246;2024-03-02T14:57:42;13.30;99.90
10702;DHT22;5402;50.004;8.246;2024-03-02T15:00:10;13.30;99.90
10702;DHT22;5402;50.004;8.246;2024-03-02T15:02:37;13.30;99.90
10702;DHT22;5402;50.004;8.246;2024-03-02T15:05:05;13.50;99.90
10702;DHT22;5402;50.004;8.246;2024-03-02T15:07:32;13.40;99.90
10702;DHT22;5402;50.004;8.246;2024-03-02T15:09:59;13.40;99.90
10702;DHT22;5402;50.004;8.246;2024-03-02T15:12:26;13.50;99.90
10702;DHT22;5402;50.004;8.246;2024-03-02T15:14:53;13.40;99.90
10702;DHT22;5402;50.004;8.246;2024-03-02T15:17:20;13.50;99.90
10702;DHT22;5402;50.004;8.246;2024-03-02T15:19:47;13.40;99.90
10702;DHT22;5402;50.004;8.246;2024-03-02T15:22:15;13.50;99.90
10702;DHT22;5402;50.004;8.246;2024-03-02T15:24:42;13.50;99.90
10702;DHT22;5402;50.004;8.246;2024-03-02T15:27:09;13.50;99.90
10702;DHT22;5402;50.004;8.246;2024-03-02T15:29:36;13.50;99.90
10702;DHT22;5402;50.004;8.246;2024-03-02T15:32:02;13.50;99.90
10702;DHT22;5402;50.004;8.246;2024-03-02T15:34:32;13.40;99.90
10702;DHT22;5402;50.004;8.246;2024-03-02T15:37:04;13.40;99.90
10702;DHT22;5402;50.004;8.246;2024-03-02T15:39:35;13.50;99.90
10702;DHT22;5402;50.004;8.246;2024-03-02T15:42:03;13.40;99.90
10702;DHT22;5402;50.004;8.246;2024-03-02T15:44:31;13.40;99.90
10702;DHT22;5402;50.004;8.246;2024-03-02T15:46:58;13.20;99.90
10702;DHT22;5402;50.004;8.246;2024-03-02T15:49:25;13.30;99.90
10702;DHT22;5402;50.004;8.246;2024-03-02T15:51:53;13.20;99.90
10702;DHT22;5402;50.004;8.246;2024-03-02T15:54:20;13.10;99.90
10702;DHT22;5402;50.004;8.246;2024-03-02T15:56:48;13.10;99.90
10702;DHT22;5402;50.004;8.246;2024-03-02T15:59:14;13.10;99.90
10702;DHT22;5402;50.004;8.246;2024-03-02T16:01:41;13.00;99.90